sensor_id;sensor_type;location;lat;lon;timestamp;P1;durP1;ratioP1;P2;durP2;ratioP2
20034;SDS011;10178;48.034;9.800;2022-11-15T00:01:49;7.88;;;5.00;;
20034;SDS011;10178;48.034;9.800;2022-11-15T00:04:15;8.35;;;4.97;;
20034;SDS011;10178;48.034;9.800;2022-11-15T00:06:41;7.07;;;4.50;;
20034;SDS011;10178;48.034;9.800;2022-11-15T00:09:06;8.93;;;5.07;;
20034;SDS011;10178;48.034;9.800;2022-11-15T00:11:32;9.45;;;4.82;;
20034;SDS011;10178;48.034;9.800;2022-11-15T00:13:57;6.78;;;4.72;;
20034;SDS011;10178;48.034;9.800;2022-11-15T00:16:23;13.20;;;5.03;;
20034;SDS011;10178;48.034;9.800;2022-11-15T00:18:50;7.53;;;5.05;;
20034;SDS011;10178;48.034;9.800;2022-11-15T00:21:16;8.70;;;4.90;;
20034;SDS011;10178;48.034;9.800;2022-11-15T00:23:42;8.38;;;4.95;;
20034;SDS011;10178;48.034;9.800;2022-11-15T00:26:12;9.40;;;5.22;;
20034;SDS011;10178;48.034;9.800;2022-11-15T00:28:39;7.70;;;4.25;;
20034;SDS011;10178;48.034;9.800;2022-11-15T00:31:07;6.72;;;4.35;;
20034;SDS011;10178;48.034;9.800;2022-11-15T00:33:36;8.43;;;5.18;;
20034;SDS011;10178;48.034;9.800;2022-11-15T00:36:05;9.10;;;5.18;;
20034;SDS011;10178;48.034;9.800;2022-11-15T00:38:34;8.15;;;4.75;;
20034;SDS011;10178;48.034;9.800;2022-11-15T00:41:01;7.28;;;4.60;;
20034;SDS011;10178;48.034;9.800;2022-11-15T00:43:28;8.63;;;5.38;;
20034;SDS011;10178;48.034;9.800;2022-11-15T00:45:54;10.65;;;4.70;;
20034;SDS011;10178;48.034;9.800;2022-11-15T00:48:19;8.18;;;4.57;;
20034;SDS011;10178;48.034;9.800;2022-11-15T00:50:45;9.25;;;4.53;;
20034;SDS011;10178;48.034;9.800;2022-11-15T00:53:10;9.43;;;4.60;;
20034;SDS011;10178;48.034;9.800;2022-11-15T00:55:36;9.30;;;4.55;;
20034;SDS011;10178;48.034;9.800;2022-11-15T00:58:02;7.63;;;4.65;;
20034;SDS011;10178;48.034;9.800;2022-11-15T01:00:27;6.18;;;3.90;;
20034;SDS011;10178;48.034;9.800;2022-11-15T01:02:53;8.50;;;4.85;;
20034;SDS011;10178;48.034;9.800;2022-11-15T01:05:19;9.18;;;4.82;;
20034;SDS011;10178;48.034;9.800;2022-11-15T01:07:45;8.10;;;4.28;;
20034;SDS011;10178;48.034;9.800;2022-11-15T01:10:11;8.35;;;4.47;;
20034;SDS011;10178;48.034;9.800;2022-11-15T01:12:37;5.45;;;4.10;;
20034;SDS011;10178;48.034;9.800;2022-11-15T01:15:03;6.18;;;4.32;;
20034;SDS011;10178;48.034;9.800;2022-11-15T01:17:30;7.60;;;4.70;;
20034;SDS011;10178;48.034;9.800;2022-11-15T01:19:56;5.82;;;4.35;;
20034;SDS011;10178;48.034;9.800;2022-11-15T01:22:22;6.15;;;4.45;;
20034;SDS011;10178;48.034;9.800;2022-11-15T01:24:49;7.38;;;4.72;;
20034;SDS011;10178;48.034;9.800;2022-11-15T01:27:15;9.73;;;5.95;;
20034;SDS011;10178;48.034;9.800;2022-11-15T01:29:41;7.68;;;5.00;;
20034;SDS011;10178;48.034;9.800;2022-11-15T01:32:07;8.40;;;5.40;;
20034;SDS011;10178;48.034;9.800;2022-11-15T01:34:32;7.78;;;5.20;;
20034;SDS011;10178;48.034;9.800;2022-11-15T01:36:58;7.53;;;5.05;;
20034;SDS011;10178;48.034;9.800;2022-11-15T01:39:24;13.38;;;7.78;;
20034;SDS011;10178;48.034;9.800;2022-11-15T01:41:49;8.02;;;5.00;;
20034;SDS011;10178;48.034;9.800;2022-11-15T01:46:56;9.10;;;5.30;;
20034;SDS011;10178;48.034;9.800;2022-11-15T01:49:24;7.18;;;4.90;;
20034;SDS011;10178;48.034;9.800;2022-11-15T01:51:51;8.27;;;5.15;;
20034;SDS011;10178;48.034;9.800;2022-11-15T01:54:18;9.15;;;5.28;;
20034;SDS011;10178;48.034;9.800;2022-11-15T01:56:48;10.88;;;5.40;;
20034;SDS011;10178;48.034;9.800;2022-11-15T01:59:18;7.93;;;4.80;;
20034;SDS011;10178;48.034;9.800;2022-11-15T02:01:45;7.63;;;5.10;;
20034;SDS011;10178;48.034;9.800;2022-11-15T02:04:45;7.93;;;4.93;;
20034;SDS011;10178;48.034;9.800;2022-11-15T02:07:05;7.45;;;4.85;;
20034;SDS011;10178;48.034;9.800;2022-11-15T02:09:36;7.40;;;4.75;;
20034;SDS011;10178;48.034;9.800;2022-11-15T02:12:03;9.73;;;4.78;;
20034;SDS011;10178;48.034;9.800;2022-11-15T02:14:30;5.45;;;4.32;;
20034;SDS011;10178;48.034;9.800;2022-11-15T02:22:51;6.18;;;4.35;;
20034;SDS011;10178;48.034;9.800;2022-11-15T02:31:39;6.35;;;4.05;;
20034;SDS011;10178;48.034;9.800;2022-11-15T02:42:33;4.45;;;3.83;;
20034;SDS011;10178;48.034;9.800;2022-11-15T02:45:30;4.38;;;3.47;;
20034;SDS011;10178;48.034;9.800;2022-11-15T02:48:00;6.47;;;3.58;;
20034;SDS011;10178;48.034;9.800;2022-11-15T02:50:28;4.97;;;3.75;;
20034;SDS011;10178;48.034;9.800;2022-11-15T02:52:55;4.95;;;3.60;;
20034;SDS011;10178;48.034;9.800;2022-11-15T02:55:28;4.85;;;3.42;;
20034;SDS011;10178;48.034;9.800;2022-11-15T03:00:38;5.32;;;3.60;;
20034;SDS011;10178;48.034;9.800;2022-11-15T03:08:52;4.28;;;3.63;;
20034;SDS011;10178;48.034;9.800;2022-11-15T03:11:23;5.10;;;3.58;;
20034;SDS011;10178;48.034;9.800;2022-11-15T03:17:19;4.32;;;3.30;;
20034;SDS011;10178;48.034;9.800;2022-11-15T03:19:53;4.40;;;3.15;;
20034;SDS011;10178;48.034;9.800;2022-11-15T03:22:21;4.05;;;3.15;;
20034;SDS011;10178;48.034;9.800;2022-11-15T03:24:53;4.05;;;2.92;;
20034;SDS011;10178;48.034;9.800;2022-11-15T03:27:23;6.10;;;3.40;;
20034;SDS011;10178;48.034;9.800;2022-11-15T03:29:59;5.70;;;3.10;;
20034;SDS011;10178;48.034;9.800;2022-11-15T03:32:29;4.82;;;3.70;;
20034;SDS011;10178;48.034;9.800;2022-11-15T03:37:32;4.20;;;3.10;;
20034;SDS011;10178;48.034;9.800;2022-11-15T03:39:59;4.60;;;3.38;;
20034;SDS011;10178;48.034;9.800;2022-11-15T03:42:34;5.43;;;3.30;;
20034;SDS011;10178;48.034;9.800;2022-11-15T03:45:13;3.63;;;3.03;;
20034;SDS011;10178;48.034;9.800;2022-11-15T03:47:58;3.92;;;3.10;;
20034;SDS011;10178;48.034;9.800;2022-11-15T03:50:25;6.45;;;3.00;;
20034;SDS011;10178;48.034;9.800;2022-11-15T03:52:51;3.58;;;2.80;;
20034;SDS011;10178;48.034;9.800;2022-11-15T03:55:20;4.80;;;3.25;;
20034;SDS011;10178;48.034;9.800;2022-11-15T03:57:47;5.30;;;3.42;;
20034;SDS011;10178;48.034;9.800;2022-11-15T04:00:16;3.40;;;2.83;;
20034;SDS011;10178;48.034;9.800;2022-11-15T04:02:42;3.50;;;3.15;;
20034;SDS011;10178;48.034;9.800;2022-11-15T04:05:07;4.28;;;3.20;;
20034;SDS011;10178;48.034;9.800;2022-11-15T04:07:33;3.40;;;3.10;;
20034;SDS011;10178;48.034;9.800;2022-11-15T04:09:59;4.60;;;2.90;;
20034;SDS011;10178;48.034;9.800;2022-11-15T04:12:28;5.20;;;3.10;;
20034;SDS011;10178;48.034;9.800;2022-11-15T04:15:15;7.53;;;3.03;;
20034;SDS011;10178;48.034;9.800;2022-11-15T04:17:47;3.42;;;3.00;;
20034;SDS011;10178;48.034;9.800;2022-11-15T04:20:18;2.95;;;2.65;;
20034;SDS011;10178;48.034;9.800;2022-11-15T04:23:09;4.00;;;3.10;;
20034;SDS011;10178;48.034;9.800;2022-11-15T04:25:59;5.55;;;3.00;;
20034;SDS011;10178;48.034;9.800;2022-11-15T04:28:26;6.00;;;3.08;;
20034;SDS011;10178;48.034;9.800;2022-11-15T04:30:52;4.10;;;2.92;;
20034;SDS011;10178;48.034;9.800;2022-11-15T04:33:18;3.92;;;3.15;;
20034;SDS011;10178;48.034;9.800;2022-11-15T04:35:44;4.07;;;2.85;;
20034;SDS011;10178;48.034;9.800;2022-11-15T04:38:29;3.63;;;3.08;;
20034;SDS011;10178;48.034;9.800;2022-11-15T04:40:55;4.30;;;2.67;;
20034;SDS011;10178;48.034;9.800;2022-11-15T04:43:21;3.50;;;2.63;;
20034;SDS011;10178;48.034;9.800;2022-11-15T04:45:47;4.45;;;3.40;;
20034;SDS011;10178;48.034;9.800;2022-11-15T04:48:12;4.40;;;3.38;;
20034;SDS011;10178;48.034;9.800;2022-11-15T04:50:38;4.90;;;3.10;;
20034;SDS011;10178;48.034;9.800;2022-11-15T04:53:04;6.78;;;2.92;;
20034;SDS011;10178;48.034;9.800;2022-11-15T04:55:29;4.82;;;3.38;;
20034;SDS011;10178;48.034;9.800;2022-11-15T04:57:58;4.47;;;3.10;;
20034;SDS011;10178;48.034;9.800;2022-11-15T05:00:25;4.10;;;3.03;;
20034;SDS011;10178;48.034;9.800;2022-11-15T05:02:52;4.80;;;2.70;;
20034;SDS011;10178;48.034;9.800;2022-11-15T05:05:36;4.60;;;3.00;;
20034;SDS011;10178;48.034;9.800;2022-11-15T05:08:02;3.50;;;2.90;;
20034;SDS011;10178;48.034;9.800;2022-11-15T05:10:28;4.43;;;3.08;;
20034;SDS011;10178;48.034;9.800;2022-11-15T05:12:53;3.78;;;3.20;;
20034;SDS011;10178;48.034;9.800;2022-11-15T05:15:19;3.42;;;3.03;;
20034;SDS011;10178;48.034;9.800;2022-11-15T05:17:45;5.43;;;3.10;;
20034;SDS011;10178;48.034;9.800;2022-11-15T05:20:11;3.75;;;3.08;;
20034;SDS011;10178;48.034;9.800;2022-11-15T05:22:37;6.43;;;3.15;;
20034;SDS011;10178;48.034;9.800;2022-11-15T05:25:03;4.18;;;2.80;;
20034;SDS011;10178;48.034;9.800;2022-11-15T05:27:29;9.25;;;7.20;;
20034;SDS011;10178;48.034;9.800;2022-11-15T05:29:54;11.82;;;9.43;;
20034;SDS011;10178;48.034;9.800;2022-11-15T05:32:20;6.18;;;5.38;;
20034;SDS011;10178;48.034;9.800;2022-11-15T05:34:52;7.45;;;6.05;;
20034;SDS011;10178;48.034;9.800;2022-11-15T05:38:02;4.73;;;3.83;;
20034;SDS011;10178;48.034;9.800;2022-11-15T05:40:28;4.68;;;4.00;;
20034;SDS011;10178;48.034;9.800;2022-11-15T05:42:55;5.90;;;3.35;;
20034;SDS011;10178;48.034;9.800;2022-11-15T05:45:21;4.40;;;3.28;;
20034;SDS011;10178;48.034;9.800;2022-11-15T05:47:47;3.88;;;3.58;;
20034;SDS011;10178;48.034;9.800;2022-11-15T05:50:14;5.70;;;3.55;;
20034;SDS011;10178;48.034;9.800;2022-11-15T05:52:43;4.88;;;3.58;;
20034;SDS011;10178;48.034;9.800;2022-11-15T05:55:10;4.57;;;3.55;;
20034;SDS011;10178;48.034;9.800;2022-11-15T05:57:36;4.18;;;3.58;;
20034;SDS011;10178;48.034;9.800;2022-11-15T06:00:03;4.97;;;3.70;;
20034;SDS011;10178;48.034;9.800;2022-11-15T06:02:29;4.60;;;3.65;;
20034;SDS011;10178;48.034;9.800;2022-11-15T06:04:55;4.80;;;3.92;;
20034;SDS011;10178;48.034;9.800;2022-11-15T06:07:20;4.83;;;3.80;;
20034;SDS011;10178;48.034;9.800;2022-11-15T06:09:46;6.03;;;4.72;;
20034;SDS011;10178;48.034;9.800;2022-11-15T06:12:12;5.50;;;3.63;;
20034;SDS011;10178;48.034;9.800;2022-11-15T06:14:38;5.60;;;3.50;;
20034;SDS011;10178;48.034;9.800;2022-11-15T06:17:04;4.07;;;3.47;;
20034;SDS011;10178;48.034;9.800;2022-11-15T06:19:29;4.20;;;3.55;;
20034;SDS011;10178;48.034;9.800;2022-11-15T06:21:58;8.90;;;5.50;;
20034;SDS011;10178;48.034;9.800;2022-11-15T06:24:24;7.97;;;5.43;;
20034;SDS011;10178;48.034;9.800;2022-11-15T06:26:50;7.90;;;5.27;;
20034;SDS011;10178;48.034;9.800;2022-11-15T06:29:16;5.57;;;4.32;;
20034;SDS011;10178;48.034;9.800;2022-11-15T06:31:41;5.07;;;4.05;;
20034;SDS011;10178;48.034;9.800;2022-11-15T06:34:07;4.93;;;3.90;;
20034;SDS011;10178;48.034;9.800;2022-11-15T06:36:36;5.07;;;3.90;;
20034;SDS011;10178;48.034;9.800;2022-11-15T06:39:03;4.55;;;3.80;;
20034;SDS011;10178;48.034;9.800;2022-11-15T06:41:29;7.80;;;3.73;;
20034;SDS011;10178;48.034;9.800;2022-11-15T06:43:56;4.20;;;3.80;;
20034;SDS011;10178;48.034;9.800;2022-11-15T06:46:22;5.60;;;3.90;;
20034;SDS011;10178;48.034;9.800;2022-11-15T06:52:00;3.63;;;3.30;;
20034;SDS011;10178;48.034;9.800;2022-11-15T06:54:32;7.50;;;3.85;;
20034;SDS011;10178;48.034;9.800;2022-11-15T06:56:57;6.07;;;3.90;;
20034;SDS011;10178;48.034;9.800;2022-11-15T06:59:23;5.97;;;4.00;;
20034;SDS011;10178;48.034;9.800;2022-11-15T07:01:49;5.45;;;4.22;;
20034;SDS011;10178;48.034;9.800;2022-11-15T07:04:14;5.50;;;4.22;;
20034;SDS011;10178;48.034;9.800;2022-11-15T07:06:40;10.32;;;4.50;;
20034;SDS011;10178;48.034;9.800;2022-11-15T07:09:06;6.50;;;4.55;;
20034;SDS011;10178;48.034;9.800;2022-11-15T07:11:33;5.25;;;4.40;;
20034;SDS011;10178;48.034;9.800;2022-11-15T07:13:59;6.95;;;4.88;;
20034;SDS011;10178;48.034;9.800;2022-11-15T07:16:25;6.83;;;4.20;;
20034;SDS011;10178;48.034;9.800;2022-11-15T07:18:52;5.17;;;4.20;;
20034;SDS011;10178;48.034;9.800;2022-11-15T07:21:17;7.72;;;4.47;;
20034;SDS011;10178;48.034;9.800;2022-11-15T07:23:43;5.40;;;4.30;;
20034;SDS011;10178;48.034;9.800;2022-11-15T07:26:09;6.55;;;4.70;;
20034;SDS011;10178;48.034;9.800;2022-11-15T07:28:34;8.07;;;5.18;;
20034;SDS011;10178;48.034;9.800;2022-11-15T07:31:03;7.53;;;3.95;;
20034;SDS011;10178;48.034;9.800;2022-11-15T07:33:30;8.18;;;4.88;;
20034;SDS011;10178;48.034;9.800;2022-11-15T07:35:58;5.90;;;4.43;;
20034;SDS011;10178;48.034;9.800;2022-11-15T07:38:26;6.82;;;4.55;;
20034;SDS011;10178;48.034;9.800;2022-11-15T07:40:59;5.50;;;4.38;;
20034;SDS011;10178;48.034;9.800;2022-11-15T07:43:26;5.80;;;4.70;;
20034;SDS011;10178;48.034;9.800;2022-11-15T07:45:57;6.55;;;5.00;;
20034;SDS011;10178;48.034;9.800;2022-11-15T07:48:23;6.20;;;4.50;;
20034;SDS011;10178;48.034;9.800;2022-11-15T07:50:48;8.75;;;5.43;;
20034;SDS011;10178;48.034;9.800;2022-11-15T07:53:14;10.63;;;5.40;;
20034;SDS011;10178;48.034;9.800;2022-11-15T07:55:40;7.63;;;5.00;;
20034;SDS011;10178;48.034;9.800;2022-11-15T07:58:07;7.07;;;5.15;;
20034;SDS011;10178;48.034;9.800;2022-11-15T08:00:34;7.38;;;5.82;;
20034;SDS011;10178;48.034;9.800;2022-11-15T08:03:04;12.38;;;6.50;;
20034;SDS011;10178;48.034;9.800;2022-11-15T08:05:32;9.30;;;7.07;;
20034;SDS011;10178;48.034;9.800;2022-11-15T08:07:58;8.35;;;7.00;;
20034;SDS011;10178;48.034;9.800;2022-11-15T08:10:24;8.60;;;6.47;;
20034;SDS011;10178;48.034;9.800;2022-11-15T08:13:10;11.40;;;6.68;;
20034;SDS011;10178;48.034;9.800;2022-11-15T08:15:36;8.40;;;6.72;;
20034;SDS011;10178;48.034;9.800;2022-11-15T08:18:04;12.82;;;6.95;;
20034;SDS011;10178;48.034;9.800;2022-11-15T08:20:31;10.10;;;6.53;;
20034;SDS011;10178;48.034;9.800;2022-11-15T08:22:57;10.57;;;6.80;;
20034;SDS011;10178;48.034;9.800;2022-11-15T08:25:25;8.55;;;6.57;;
20034;SDS011;10178;48.034;9.800;2022-11-15T08:28:01;8.55;;;6.90;;
20034;SDS011;10178;48.034;9.800;2022-11-15T08:30:29;10.63;;;7.05;;
20034;SDS011;10178;48.034;9.800;2022-11-15T08:32:56;7.25;;;5.60;;
20034;SDS011;10178;48.034;9.800;2022-11-15T08:35:23;8.50;;;6.25;;
20034;SDS011;10178;48.034;9.800;2022-11-15T08:37:49;7.43;;;6.30;;
20034;SDS011;10178;48.034;9.800;2022-11-15T08:40:17;6.78;;;5.10;;
20034;SDS011;10178;48.034;9.800;2022-11-15T08:42:45;6.68;;;5.53;;
20034;SDS011;10178;48.034;9.800;2022-11-15T08:45:11;5.72;;;5.03;;
20034;SDS011;10178;48.034;9.800;2022-11-15T08:47:37;6.88;;;5.63;;
20034;SDS011;10178;48.034;9.800;2022-11-15T08:50:03;7.45;;;5.90;;
20034;SDS011;10178;48.034;9.800;2022-11-15T08:52:29;8.90;;;5.90;;
20034;SDS011;10178;48.034;9.800;2022-11-15T08:54:55;12.47;;;6.17;;
20034;SDS011;10178;48.034;9.800;2022-11-15T08:57:20;16.53;;;10.30;;
20034;SDS011;10178;48.034;9.800;2022-11-15T08:59:46;14.27;;;10.37;;
20034;SDS011;10178;48.034;9.800;2022-11-15T09:02:12;11.47;;;7.70;;
20034;SDS011;10178;48.034;9.800;2022-11-15T09:04:42;8.43;;;6.80;;
20034;SDS011;10178;48.034;9.800;2022-11-15T09:07:09;10.20;;;6.65;;
20034;SDS011;10178;48.034;9.800;2022-11-15T09:09:36;8.48;;;6.00;;
20034;SDS011;10178;48.034;9.800;2022-11-15T09:12:02;9.32;;;5.85;;
20034;SDS011;10178;48.034;9.800;2022-11-15T09:14:28;6.72;;;5.50;;
20034;SDS011;10178;48.034;9.800;2022-11-15T09:16:54;7.78;;;5.68;;
20034;SDS011;10178;48.034;9.800;2022-11-15T09:19:20;5.80;;;4.57;;
20034;SDS011;10178;48.034;9.800;2022-11-15T09:21:46;8.77;;;5.10;;
20034;SDS011;10178;48.034;9.800;2022-11-15T09:24:11;6.57;;;5.22;;
20034;SDS011;10178;48.034;9.800;2022-11-15T09:26:37;10.20;;;5.65;;
20034;SDS011;10178;48.034;9.800;2022-11-15T09:29:03;8.10;;;4.55;;
20034;SDS011;10178;48.034;9.800;2022-11-15T09:31:28;6.97;;;4.70;;
20034;SDS011;10178;48.034;9.800;2022-11-15T09:33:54;8.77;;;5.55;;
20034;SDS011;10178;48.034;9.800;2022-11-15T09:36:20;8.30;;;5.10;;
20034;SDS011;10178;48.034;9.800;2022-11-15T09:38:46;8.38;;;5.25;;
20034;SDS011;10178;48.034;9.800;2022-11-15T09:43:53;7.30;;;5.55;;
20034;SDS011;10178;48.034;9.800;2022-11-15T09:49:34;8.05;;;5.20;;
20034;SDS011;10178;48.034;9.800;2022-11-15T09:51:59;6.78;;;5.22;;
20034;SDS011;10178;48.034;9.800;2022-11-15T09:56:51;8.45;;;5.35;;
20034;SDS011;10178;48.034;9.800;2022-11-15T10:04:35;6.90;;;5.63;;
20034;SDS011;10178;48.034;9.800;2022-11-15T10:07:10;8.35;;;5.47;;
20034;SDS011;10178;48.034;9.800;2022-11-15T10:12:40;8.75;;;6.60;;
20034;SDS011;10178;48.034;9.800;2022-11-15T10:15:15;9.52;;;6.57;;
20034;SDS011;10178;48.034;9.800;2022-11-15T10:20:33;8.88;;;5.53;;
20034;SDS011;10178;48.034;9.800;2022-11-15T10:23:13;17.73;;;7.18;;
20034;SDS011;10178;48.034;9.800;2022-11-15T10:25:40;15.27;;;9.05;;
20034;SDS011;10178;48.034;9.800;2022-11-15T10:28:22;22.40;;;10.18;;
20034;SDS011;10178;48.034;9.800;2022-11-15T10:30:54;20.02;;;8.68;;
20034;SDS011;10178;48.034;9.800;2022-11-15T10:36:15;10.68;;;7.18;;
20034;SDS011;10178;48.034;9.800;2022-11-15T10:41:15;11.23;;;7.47;;
20034;SDS011;10178;48.034;9.800;2022-11-15T10:43:51;10.77;;;7.70;;
20034;SDS011;10178;48.034;9.800;2022-11-15T10:46:42;10.32;;;6.95;;
20034;SDS011;10178;48.034;9.800;2022-11-15T10:49:19;10.45;;;7.18;;
20034;SDS011;10178;48.034;9.800;2022-11-15T10:51:54;14.88;;;8.18;;
20034;SDS011;10178;48.034;9.800;2022-11-15T10:54:30;15.23;;;7.18;;
20034;SDS011;10178;48.034;9.800;2022-11-15T10:57:12;12.82;;;6.55;;
20034;SDS011;10178;48.034;9.800;2022-11-15T10:59:42;13.88;;;7.70;;
20034;SDS011;10178;48.034;9.800;2022-11-15T11:02:36;11.70;;;6.97;;
20034;SDS011;10178;48.034;9.800;2022-11-15T11:05:25;13.10;;;7.72;;
20034;SDS011;10178;48.034;9.800;2022-11-15T11:10:39;10.93;;;7.20;;
20034;SDS011;10178;48.034;9.800;2022-11-15T11:13:22;9.13;;;6.20;;
20034;SDS011;10178;48.034;9.800;2022-11-15T11:23:59;14.25;;;6.93;;
20034;SDS011;10178;48.034;9.800;2022-11-15T11:26:42;19.17;;;6.80;;
20034;SDS011;10178;48.034;9.800;2022-11-15T11:37:43;11.90;;;6.53;;
20034;SDS011;10178;48.034;9.800;2022-11-15T11:40:29;15.18;;;6.72;;
20034;SDS011;10178;48.034;9.800;2022-11-15T11:46:14;12.80;;;7.78;;
20034;SDS011;10178;48.034;9.800;2022-11-15T11:48:49;12.23;;;5.80;;
20034;SDS011;10178;48.034;9.800;2022-11-15T11:57:12;13.38;;;5.75;;
20034;SDS011;10178;48.034;9.800;2022-11-15T11:59:59;12.80;;;5.97;;
20034;SDS011;10178;48.034;9.800;2022-11-15T12:02:34;14.30;;;6.35;;
20034;SDS011;10178;48.034;9.800;2022-11-15T12:05:11;11.68;;;6.53;;
20034;SDS011;10178;48.034;9.800;2022-11-15T12:07:52;14.55;;;7.03;;
20034;SDS011;10178;48.034;9.800;2022-11-15T12:10:24;11.93;;;6.38;;
20034;SDS011;10178;48.034;9.800;2022-11-15T12:12:58;11.50;;;6.72;;
20034;SDS011;10178;48.034;9.800;2022-11-15T12:16:26;12.38;;;7.57;;
20034;SDS011;10178;48.034;9.800;2022-11-15T12:18:51;13.43;;;7.43;;
20034;SDS011;10178;48.034;9.800;2022-11-15T12:21:36;11.88;;;7.97;;
20034;SDS011;10178;48.034;9.800;2022-11-15T12:24:17;10.48;;;7.03;;
20034;SDS011;10178;48.034;9.800;2022-11-15T12:27:01;9.35;;;7.47;;
20034;SDS011;10178;48.034;9.800;2022-11-15T12:29:47;10.73;;;7.50;;
20034;SDS011;10178;48.034;9.800;2022-11-15T12:32:37;12.23;;;7.43;;
20034;SDS011;10178;48.034;9.800;2022-11-15T12:35:05;10.90;;;7.32;;
20034;SDS011;10178;48.034;9.800;2022-11-15T12:37:47;8.77;;;6.35;;
20034;SDS011;10178;48.034;9.800;2022-11-15T12:40:19;7.78;;;6.78;;
20034;SDS011;10178;48.034;9.800;2022-11-15T12:48:45;9.48;;;6.35;;
20034;SDS011;10178;48.034;9.800;2022-11-15T12:51:00;9.88;;;6.75;;
20034;SDS011;10178;48.034;9.800;2022-11-15T12:53:27;10.52;;;5.40;;
20034;SDS011;10178;48.034;9.800;2022-11-15T12:56:08;9.48;;;6.68;;
20034;SDS011;10178;48.034;9.800;2022-11-15T12:58:47;8.88;;;6.88;;
20034;SDS011;10178;48.034;9.800;2022-11-15T13:11:57;7.93;;;5.78;;
20034;SDS011;10178;48.034;9.800;2022-11-15T13:19:48;10.15;;;6.50;;
20034;SDS011;10178;48.034;9.800;2022-11-15T13:22:20;9.80;;;5.80;;
20034;SDS011;10178;48.034;9.800;2022-11-15T13:25:04;9.43;;;5.95;;
20034;SDS011;10178;48.034;9.800;2022-11-15T13:27:41;7.93;;;6.20;;
20034;SDS011;10178;48.034;9.800;2022-11-15T13:30:13;6.55;;;5.25;;
20034;SDS011;10178;48.034;9.800;2022-11-15T13:32:48;9.18;;;5.80;;
20034;SDS011;10178;48.034;9.800;2022-11-15T13:35:23;8.82;;;5.75;;
20034;SDS011;10178;48.034;9.800;2022-11-15T13:37:51;7.90;;;5.88;;
20034;SDS011;10178;48.034;9.800;2022-11-15T13:40:25;10.20;;;6.93;;
20034;SDS011;10178;48.034;9.800;2022-11-15T13:42:55;13.43;;;8.43;;
20034;SDS011;10178;48.034;9.800;2022-11-15T13:45:22;7.80;;;5.97;;
20034;SDS011;10178;48.034;9.800;2022-11-15T13:47:51;8.15;;;6.32;;
20034;SDS011;10178;48.034;9.800;2022-11-15T13:50:25;10.27;;;6.22;;
20034;SDS011;10178;48.034;9.800;2022-11-15T13:52:57;9.60;;;6.10;;
20034;SDS011;10178;48.034;9.800;2022-11-15T13:55:24;8.90;;;5.50;;
20034;SDS011;10178;48.034;9.800;2022-11-15T13:57:51;7.22;;;5.57;;
20034;SDS011;10178;48.034;9.800;2022-11-15T14:00:32;11.05;;;6.65;;
20034;SDS011;10178;48.034;9.800;2022-11-15T14:03:16;9.40;;;6.68;;
20034;SDS011;10178;48.034;9.800;2022-11-15T14:06:08;10.10;;;5.88;;
20034;SDS011;10178;48.034;9.800;2022-11-15T14:08:40;8.75;;;5.90;;
20034;SDS011;10178;48.034;9.800;2022-11-15T14:11:26;8.10;;;6.32;;
20034;SDS011;10178;48.034;9.800;2022-11-15T14:14:04;13.02;;;7.93;;
20034;SDS011;10178;48.034;9.800;2022-11-15T14:16:37;10.80;;;6.60;;
20034;SDS011;10178;48.034;9.800;2022-11-15T14:19:06;8.27;;;6.28;;
20034;SDS011;10178;48.034;9.800;2022-11-15T14:21:35;6.53;;;5.80;;
20034;SDS011;10178;48.034;9.800;2022-11-15T14:24:14;9.95;;;6.22;;
20034;SDS011;10178;48.034;9.800;2022-11-15T14:26:45;10.38;;;7.90;;
20034;SDS011;10178;48.034;9.800;2022-11-15T14:31:50;11.13;;;6.95;;
20034;SDS011;10178;48.034;9.800;2022-11-15T14:34:16;9.60;;;5.97;;
20034;SDS011;10178;48.034;9.800;2022-11-15T14:36:42;7.07;;;6.18;;
20034;SDS011;10178;48.034;9.800;2022-11-15T14:39:07;10.98;;;6.03;;
20034;SDS011;10178;48.034;9.800;2022-11-15T14:41:35;8.80;;;5.65;;
20034;SDS011;10178;48.034;9.800;2022-11-15T14:44:04;7.75;;;6.00;;
20034;SDS011;10178;48.034;9.800;2022-11-15T14:46:30;10.95;;;6.40;;
20034;SDS011;10178;48.034;9.800;2022-11-15T14:48:56;8.50;;;6.07;;
20034;SDS011;10178;48.034;9.800;2022-11-15T14:51:22;8.85;;;5.85;;
20034;SDS011;10178;48.034;9.800;2022-11-15T14:53:48;7.05;;;5.65;;
20034;SDS011;10178;48.034;9.800;2022-11-15T14:56:14;7.70;;;5.70;;
20034;SDS011;10178;48.034;9.800;2022-11-15T14:58:41;7.82;;;5.10;;
20034;SDS011;10178;48.034;9.800;2022-11-15T15:01:25;10.55;;;5.18;;
20034;SDS011;10178;48.034;9.800;2022-11-15T15:03:51;8.38;;;4.57;;
20034;SDS011;10178;48.034;9.800;2022-11-15T15:06:20;6.80;;;4.75;;
20034;SDS011;10178;48.034;9.800;2022-11-15T15:08:46;8.45;;;4.90;;
20034;SDS011;10178;48.034;9.800;2022-11-15T15:11:28;9.20;;;4.78;;
20034;SDS011;10178;48.034;9.800;2022-11-15T15:13:55;8.00;;;5.15;;
20034;SDS011;10178;48.034;9.800;2022-11-15T15:16:23;9.48;;;4.97;;
20034;SDS011;10178;48.034;9.800;2022-11-15T15:18:49;8.75;;;5.47;;
20034;SDS011;10178;48.034;9.800;2022-11-15T15:21:22;6.95;;;5.38;;
20034;SDS011;10178;48.034;9.800;2022-11-15T15:23:50;6.90;;;5.57;;
20034;SDS011;10178;48.034;9.800;2022-11-15T15:26:17;5.97;;;4.88;;
20034;SDS011;10178;48.034;9.800;2022-11-15T15:28:42;10.85;;;5.90;;
20034;SDS011;10178;48.034;9.800;2022-11-15T15:31:09;7.75;;;4.35;;
20034;SDS011;10178;48.034;9.800;2022-11-15T15:33:35;7.60;;;6.18;;
20034;SDS011;10178;48.034;9.800;2022-11-15T15:36:01;7.10;;;4.80;;
20034;SDS011;10178;48.034;9.800;2022-11-15T15:38:27;12.10;;;6.20;;
20034;SDS011;10178;48.034;9.800;2022-11-15T15:40:53;9.57;;;5.78;;
20034;SDS011;10178;48.034;9.800;2022-11-15T15:43:19;7.80;;;5.63;;
20034;SDS011;10178;48.034;9.800;2022-11-15T15:45:45;8.75;;;4.95;;
20034;SDS011;10178;48.034;9.800;2022-11-15T15:48:11;10.68;;;7.25;;
20034;SDS011;10178;48.034;9.800;2022-11-15T15:50:38;5.28;;;4.78;;
20034;SDS011;10178;48.034;9.800;2022-11-15T15:53:04;12.90;;;9.05;;
20034;SDS011;10178;48.034;9.800;2022-11-15T15:55:30;6.82;;;5.30;;
20034;SDS011;10178;48.034;9.800;2022-11-15T15:57:56;10.10;;;5.90;;
20034;SDS011;10178;48.034;9.800;2022-11-15T16:00:23;8.50;;;5.32;;
20034;SDS011;10178;48.034;9.800;2022-11-15T16:02:50;8.52;;;6.38;;
20034;SDS011;10178;48.034;9.800;2022-11-15T16:05:16;11.93;;;6.60;;
20034;SDS011;10178;48.034;9.800;2022-11-15T16:07:42;10.32;;;7.00;;
20034;SDS011;10178;48.034;9.800;2022-11-15T16:12:51;9.57;;;6.38;;
20034;SDS011;10178;48.034;9.800;2022-11-15T16:15:18;6.82;;;5.00;;
20034;SDS011;10178;48.034;9.800;2022-11-15T16:17:51;7.00;;;4.60;;
20034;SDS011;10178;48.034;9.800;2022-11-15T16:23:00;8.30;;;5.90;;
20034;SDS011;10178;48.034;9.800;2022-11-15T16:25:27;8.93;;;5.22;;
20034;SDS011;10178;48.034;9.800;2022-11-15T16:27:53;11.43;;;6.80;;
20034;SDS011;10178;48.034;9.800;2022-11-15T16:30:20;9.80;;;7.03;;
20034;SDS011;10178;48.034;9.800;2022-11-15T16:32:47;23.73;;;13.05;;
20034;SDS011;10178;48.034;9.800;2022-11-15T16:35:13;24.77;;;15.40;;
20034;SDS011;10178;48.034;9.800;2022-11-15T16:37:40;30.73;;;18.92;;
20034;SDS011;10178;48.034;9.800;2022-11-15T16:40:24;27.42;;;17.25;;
20034;SDS011;10178;48.034;9.800;2022-11-15T16:42:50;15.40;;;11.90;;
20034;SDS011;10178;48.034;9.800;2022-11-15T16:45:16;15.30;;;10.35;;
20034;SDS011;10178;48.034;9.800;2022-11-15T16:47:42;16.80;;;11.32;;
20034;SDS011;10178;48.034;9.800;2022-11-15T16:50:27;20.08;;;12.18;;
20034;SDS011;10178;48.034;9.800;2022-11-15T16:52:57;32.33;;;18.45;;
20034;SDS011;10178;48.034;9.800;2022-11-15T16:55:24;26.33;;;14.43;;
20034;SDS011;10178;48.034;9.800;2022-11-15T16:57:52;31.30;;;18.20;;
20034;SDS011;10178;48.034;9.800;2022-11-15T17:00:19;32.67;;;18.17;;
20034;SDS011;10178;48.034;9.800;2022-11-15T17:02:46;28.05;;;15.75;;